createdAt,value
2022-11-15T00:00:30.801Z,5.30
2022-11-15T00:03:18.360Z,5.45
2022-11-15T00:06:06.048Z,5.07
2022-11-15T00:08:54.171Z,5.07
2022-11-15T00:11:42.190Z,5.10
2022-11-15T00:14:29.083Z,4.88
2022-11-15T00:17:16.189Z,4.70
2022-11-15T00:20:02.687Z,5.00
2022-11-15T00:22:49.222Z,5.20
2022-11-15T00:25:37.245Z,4.80
2022-11-15T00:28:23.834Z,5.32
2022-11-15T00:31:14.956Z,4.70
2022-11-15T00:34:01.776Z,5.10
2022-11-15T00:36:48.345Z,4.60
2022-11-15T00:39:35.747Z,4.60
2022-11-15T00:42:23.606Z,4.80
2022-11-15T00:45:11.880Z,5.10
2022-11-15T00:47:59.097Z,4.47
2022-11-15T00:50:46.276Z,4.40
2022-11-15T00:53:33.899Z,4.87
2022-11-15T00:56:21.629Z,4.63
2022-11-15T00:59:09.661Z,4.88
2022-11-15T01:01:56.302Z,4.70
2022-11-15T01:04:43.540Z,4.82
2022-11-15T01:07:30.067Z,4.20
2022-11-15T01:10:17.092Z,4.20
2022-11-15T01:13:03.785Z,4.60
2022-11-15T01:15:52.174Z,4.50
2022-11-15T01:18:39.359Z,4.70
2022-11-15T01:21:25.899Z,4.47
2022-11-15T01:24:14.705Z,4.38
2022-11-15T01:27:01.281Z,4.18
2022-11-15T01:29:48.358Z,4.00
2022-11-15T01:32:36.512Z,3.90
2022-11-15T01:35:23.208Z,4.00
2022-11-15T01:38:09.849Z,3.95
2022-11-15T01:40:56.705Z,4.28
2022-11-15T01:43:43.402Z,4.20
2022-11-15T01:46:33.128Z,4.25
2022-11-15T01:49:24.685Z,4.10
2022-11-15T01:52:16.793Z,4.10
2022-11-15T01:55:07.605Z,4.75
2022-11-15T01:57:58.285Z,3.90
2022-11-15T02:00:45.057Z,4.20
2022-11-15T02:03:38.884Z,3.90
2022-11-15T02:06:27.216Z,4.32
2022-11-15T02:09:15.033Z,4.35
2022-11-15T02:12:01.959Z,4.60
2022-11-15T02:14:51.421Z,4.22
2022-11-15T02:18:00.310Z,3.87
2022-11-15T02:21:00.416Z,4.20
2022-11-15T02:24:19.811Z,4.20
2022-11-15T02:27:45.776Z,4.90
2022-11-15T02:30:41.268Z,4.20
2022-11-15T02:33:35.870Z,3.70
2022-11-15T02:36:35.010Z,4.00
2022-11-15T02:39:29.508Z,3.90
2022-11-15T02:42:37.605Z,3.70
2022-11-15T02:45:29.139Z,3.90
2022-11-15T02:48:18.813Z,4.13
2022-11-15T02:51:06.458Z,3.90
2022-11-15T02:53:53.471Z,4.00
2022-11-15T02:56:40.144Z,3.45
2022-11-15T02:59:50.662Z,4.40
2022-11-15T03:03:07.277Z,3.90
2022-11-15T03:06:03.054Z,4.10
2022-11-15T03:08:58.571Z,4.00
2022-11-15T03:11:50.244Z,3.83
2022-11-15T03:14:43.181Z,3.90
2022-11-15T03:17:35.681Z,4.10
2022-11-15T03:20:22.523Z,3.90
2022-11-15T03:23:12.709Z,4.30
2022-11-15T03:26:01.732Z,4.10
2022-11-15T03:28:52.439Z,4.75
2022-11-15T03:31:51.813Z,4.67
2022-11-15T03:34:43.557Z,4.85
2022-11-15T03:37:36.092Z,5.30
2022-11-15T03:40:30.087Z,4.57
2022-11-15T03:43:26.559Z,4.25
2022-11-15T03:46:17.213Z,3.93
2022-11-15T03:49:08.729Z,4.47
2022-11-15T03:51:58.315Z,4.60
2022-11-15T03:54:52.737Z,3.90
2022-11-15T03:57:41.038Z,4.80
2022-11-15T04:00:27.958Z,4.60
2022-11-15T04:03:14.917Z,4.40
2022-11-15T04:06:01.419Z,5.00
2022-11-15T04:08:48.843Z,5.03
2022-11-15T04:11:36.614Z,5.00
2022-11-15T04:14:24.388Z,4.30
2022-11-15T04:17:11.254Z,5.00
2022-11-15T04:20:23.454Z,4.40
2022-11-15T04:23:31.491Z,4.60
2022-11-15T04:26:20.478Z,4.60
2022-11-15T04:29:24.742Z,4.20
2022-11-15T04:32:12.876Z,3.80
2022-11-15T04:34:59.654Z,3.78
2022-11-15T04:37:49.328Z,4.00
2022-11-15T04:40:37.215Z,3.83
2022-11-15T04:43:24.537Z,4.05
2022-11-15T04:46:11.254Z,3.77
2022-11-15T04:48:59.882Z,3.78
2022-11-15T04:51:46.892Z,3.50
2022-11-15T04:54:33.219Z,3.70
2022-11-15T04:57:19.910Z,4.00
2022-11-15T05:00:09.839Z,3.80
2022-11-15T05:03:14.126Z,4.35
2022-11-15T05:06:02.460Z,3.80
2022-11-15T05:08:49.063Z,3.50
2022-11-15T05:11:35.601Z,3.60
2022-11-15T05:14:23.124Z,4.05
2022-11-15T05:17:09.546Z,3.50
2022-11-15T05:19:55.963Z,3.90
2022-11-15T05:22:43.991Z,4.00
2022-11-15T05:25:30.718Z,4.10
2022-11-15T05:28:17.691Z,4.20
2022-11-15T05:31:05.039Z,3.50
2022-11-15T05:33:52.825Z,3.40
2022-11-15T05:36:40.876Z,3.92
2022-11-15T05:39:28.877Z,3.70
2022-11-15T05:42:17.418Z,3.40
2022-11-15T05:45:07.786Z,3.70
2022-11-15T05:47:57.103Z,4.10
2022-11-15T05:50:47.363Z,3.55
2022-11-15T05:53:34.956Z,3.70
2022-11-15T05:56:23.678Z,3.67
2022-11-15T05:59:11.632Z,3.63
2022-11-15T06:01:58.610Z,3.70
2022-11-15T06:04:45.454Z,4.05
2022-11-15T06:07:32.955Z,3.63
2022-11-15T06:10:20.075Z,3.65
2022-11-15T06:13:08.028Z,4.10
2022-11-15T06:15:57.751Z,3.95
2022-11-15T06:18:44.525Z,3.85
2022-11-15T06:21:31.334Z,4.30
2022-11-15T06:24:17.915Z,3.92
2022-11-15T06:27:04.642Z,3.50
2022-11-15T06:29:52.745Z,3.42
2022-11-15T06:32:39.554Z,7.25
2022-11-15T06:35:26.660Z,10.20
2022-11-15T06:38:14.047Z,7.85
2022-11-15T06:41:04.161Z,9.43
2022-11-15T06:43:50.967Z,3.97
2022-11-15T06:46:39.559Z,3.70
2022-11-15T06:49:26.098Z,3.30
2022-11-15T06:52:12.549Z,3.35
2022-11-15T06:54:59.905Z,3.42
2022-11-15T06:57:50.731Z,3.30
2022-11-15T07:00:37.668Z,3.05
2022-11-15T07:03:25.600Z,3.35
2022-11-15T07:06:12.852Z,2.95
2022-11-15T07:08:59.497Z,2.78
2022-11-15T07:11:46.113Z,3.30
2022-11-15T07:14:32.985Z,3.10
2022-11-15T07:17:19.620Z,3.08
2022-11-15T07:20:09.002Z,3.20
2022-11-15T07:23:02.310Z,3.00
2022-11-15T07:25:48.961Z,3.10
2022-11-15T07:28:35.913Z,2.70
2022-11-15T07:31:23.412Z,3.00
2022-11-15T07:34:10.852Z,2.60
2022-11-15T07:36:58.853Z,2.45
2022-11-15T07:39:45.794Z,2.33
2022-11-15T07:42:50.993Z,2.30
2022-11-15T07:45:43.314Z,2.30
2022-11-15T07:48:42.770Z,2.00
2022-11-15T07:51:29.945Z,1.80
2022-11-15T07:54:18.020Z,1.90
2022-11-15T07:57:07.639Z,1.87
2022-11-15T07:59:54.816Z,1.67
2022-11-15T08:02:42.295Z,1.97
2022-11-15T08:05:29.107Z,1.77
2022-11-15T08:08:15.702Z,1.90
2022-11-15T08:11:03.819Z,2.20
2022-11-15T08:13:50.638Z,1.90
2022-11-15T08:16:37.590Z,1.67
2022-11-15T08:19:24.317Z,1.90
2022-11-15T08:22:11.099Z,1.98
2022-11-15T08:24:57.717Z,1.60
2022-11-15T08:27:46.164Z,1.52
2022-11-15T08:30:37.265Z,1.70
2022-11-15T08:33:24.171Z,1.70
2022-11-15T08:36:15.519Z,1.77
2022-11-15T08:39:02.418Z,1.85
2022-11-15T08:41:49.242Z,1.90
2022-11-15T08:44:37.147Z,1.87
2022-11-15T08:47:24.486Z,1.70
2022-11-15T08:50:11.661Z,1.60
2022-11-15T08:52:58.595Z,1.38
2022-11-15T08:55:45.345Z,1.45
2022-11-15T08:58:32.434Z,1.65
2022-11-15T09:01:22.611Z,1.42
2022-11-15T09:04:09.728Z,1.20
2022-11-15T09:06:57.516Z,1.25
2022-11-15T09:09:44.424Z,1.30
2022-11-15T09:12:30.918Z,1.00
2022-11-15T09:15:18.505Z,1.15
2022-11-15T09:18:06.869Z,0.80
2022-11-15T09:20:57.491Z,1.10
2022-11-15T09:23:44.313Z,1.20
2022-11-15T09:26:31.078Z,0.90
2022-11-15T09:29:17.938Z,1.10
2022-11-15T09:32:04.786Z,1.27
2022-11-15T09:34:52.911Z,1.58
2022-11-15T09:37:39.847Z,0.90
2022-11-15T09:40:27.367Z,1.00
2022-11-15T09:43:30.659Z,1.10
2022-11-15T09:46:23.600Z,1.05
2022-11-15T09:49:11.915Z,0.93
2022-11-15T09:51:57.908Z,0.93
2022-11-15T09:57:22.422Z,1.00
2022-11-15T10:00:23.953Z,0.80
2022-11-15T10:03:10.548Z,0.75
2022-11-15T10:05:41.631Z,1.00
2022-11-15T10:08:24.845Z,1.10
2022-11-15T10:11:22.756Z,1.00
2022-11-15T10:13:49.162Z,0.77
2022-11-15T10:16:32.499Z,0.90
2022-11-15T10:19:09.102Z,0.90
2022-11-15T10:21:49.228Z,0.80
2022-11-15T10:24:25.832Z,0.90
2022-11-15T10:26:54.044Z,0.80
2022-11-15T10:29:26.856Z,0.77
2022-11-15T10:31:55.638Z,0.80
2022-11-15T10:34:25.921Z,0.97
2022-11-15T10:36:58.086Z,1.20
2022-11-15T10:39:28.391Z,1.00
2022-11-15T10:41:57.953Z,1.00
2022-11-15T10:44:28.693Z,0.90
2022-11-15T10:47:27.121Z,1.20
2022-11-15T10:50:03.961Z,1.00
2022-11-15T10:52:33.848Z,0.90
2022-11-15T10:55:08.392Z,1.00
2022-11-15T10:57:39.673Z,1.00
2022-11-15T11:00:28.218Z,0.90
2022-11-15T11:03:00.675Z,1.60
2022-11-15T11:05:35.228Z,1.00
2022-11-15T11:08:24.898Z,0.80
2022-11-15T11:11:02.708Z,0.80
2022-11-15T11:13:34.176Z,0.80
2022-11-15T11:16:22.306Z,0.80
2022-11-15T11:19:00.773Z,0.77
2022-11-15T11:21:44.883Z,0.90
2022-11-15T11:24:20.875Z,0.80
2022-11-15T11:27:04.410Z,0.93
2022-11-15T11:29:46.060Z,0.80
2022-11-15T11:32:29.968Z,0.90
2022-11-15T11:35:07.736Z,1.10
2022-11-15T11:37:42.018Z,0.75
2022-11-15T11:40:22.237Z,1.00
2022-11-15T11:43:00.553Z,0.90
2022-11-15T11:45:51.597Z,0.90
2022-11-15T11:48:32.106Z,0.70
2022-11-15T11:51:06.813Z,0.95
2022-11-15T11:53:43.325Z,0.70
2022-11-15T11:56:21.927Z,1.00
2022-11-15T11:58:54.636Z,0.90
2022-11-15T12:01:27.035Z,0.80
2022-11-15T12:03:59.829Z,0.80
2022-11-15T12:06:34.430Z,0.80
2022-11-15T12:09:08.820Z,0.63
2022-11-15T12:11:45.211Z,0.90
2022-11-15T12:14:24.192Z,0.90
2022-11-15T12:16:52.450Z,0.90
2022-11-15T12:19:20.811Z,0.82
2022-11-15T12:21:56.668Z,0.80
2022-11-15T12:24:30.768Z,0.80
2022-11-15T12:27:05.602Z,0.70
2022-11-15T12:29:40.130Z,0.60
2022-11-15T12:32:21.291Z,0.70
2022-11-15T12:34:51.298Z,0.90
2022-11-15T12:37:48.461Z,0.90
2022-11-15T12:40:32.169Z,0.70
2022-11-15T12:43:30.072Z,0.90
2022-11-15T12:46:05.714Z,0.60
2022-11-15T12:48:58.960Z,0.70
2022-11-15T12:52:07.151Z,0.60
2022-11-15T12:55:32.242Z,0.63
2022-11-15T12:58:29.192Z,0.70
2022-11-15T13:00:59.020Z,0.70
2022-11-15T13:03:31.279Z,0.70
2022-11-15T13:06:09.343Z,0.90
2022-11-15T13:08:49.553Z,0.60
2022-11-15T13:11:46.908Z,0.80
2022-11-15T13:14:54.798Z,0.82
2022-11-15T13:17:36.188Z,0.80
2022-11-15T13:20:25.679Z,0.80
2022-11-15T13:23:03.358Z,1.00
2022-11-15T13:26:05.480Z,0.70
2022-11-15T13:28:38.515Z,1.50
2022-11-15T13:31:34.251Z,1.17
2022-11-15T13:34:44.066Z,0.90
2022-11-15T13:37:03.593Z,2.30
2022-11-15T13:39:34.429Z,0.73
2022-11-15T13:42:03.081Z,1.00
2022-11-15T13:44:33.231Z,1.20
2022-11-15T13:47:06.894Z,1.30
2022-11-15T13:49:37.039Z,1.20
2022-11-15T13:52:08.369Z,1.20
2022-11-15T13:54:40.071Z,1.10
2022-11-15T13:57:13.516Z,1.00
2022-11-15T13:59:49.188Z,1.80
2022-11-15T14:02:20.448Z,0.90
2022-11-15T14:04:53.256Z,0.80
2022-11-15T14:07:23.349Z,1.10
2022-11-15T14:09:51.590Z,0.80
2022-11-15T14:12:32.683Z,1.30
2022-11-15T14:15:03.182Z,1.13
2022-11-15T14:17:45.668Z,0.90
2022-11-15T14:20:31.682Z,0.90
2022-11-15T14:23:02.073Z,0.90
2022-11-15T14:25:31.662Z,1.10
2022-11-15T14:28:17.160Z,2.17
2022-11-15T14:30:51.130Z,1.20
2022-11-15T14:33:26.016Z,2.22
2022-11-15T14:35:56.984Z,1.20
2022-11-15T14:38:25.459Z,0.90
2022-11-15T14:40:54.849Z,1.00
2022-11-15T14:43:23.073Z,1.00
2022-11-15T14:45:51.258Z,1.13
2022-11-15T14:48:19.614Z,1.20
2022-11-15T14:50:47.787Z,1.17
2022-11-15T14:53:18.785Z,1.48
2022-11-15T14:55:46.987Z,1.05
2022-11-15T14:58:15.180Z,0.80
2022-11-15T15:00:43.815Z,1.10
2022-11-15T15:03:12.260Z,1.42
2022-11-15T15:05:41.998Z,1.33
2022-11-15T15:08:11.194Z,1.02
2022-11-15T15:10:42.771Z,1.23
2022-11-15T15:13:18.855Z,1.02
2022-11-15T15:15:47.803Z,1.00
2022-11-15T15:18:16.464Z,1.20
2022-11-15T15:20:46.543Z,1.48
2022-11-15T15:23:19.205Z,1.30
2022-11-15T15:25:50.787Z,1.25
2022-11-15T15:28:19.024Z,1.00
2022-11-15T15:30:47.209Z,1.10
2022-11-15T15:33:15.421Z,1.30
2022-11-15T15:35:44.109Z,1.60
2022-11-15T15:38:14.235Z,1.50
2022-11-15T15:40:42.542Z,2.10
2022-11-15T15:43:12.175Z,2.00
2022-11-15T15:45:41.948Z,3.50
2022-11-15T15:48:14.484Z,2.67
2022-11-15T15:50:43.878Z,2.20
2022-11-15T15:53:13.631Z,1.80
2022-11-15T15:55:42.029Z,2.20
2022-11-15T15:58:11.649Z,2.40
2022-11-15T16:00:40.052Z,2.63
2022-11-15T16:03:08.262Z,2.33
2022-11-15T16:05:36.568Z,2.47
2022-11-15T16:08:05.248Z,2.72
2022-11-15T16:10:35.288Z,2.60
2022-11-15T16:13:03.517Z,2.40
2022-11-15T16:15:34.115Z,2.45
2022-11-15T16:18:03.448Z,2.20
2022-11-15T16:20:40.347Z,2.60
2022-11-15T16:23:10.272Z,2.72
2022-11-15T16:25:46.253Z,2.90
2022-11-15T16:28:23.548Z,3.33
2022-11-15T16:31:03.391Z,2.30
2022-11-15T16:33:35.344Z,2.20
2022-11-15T16:36:03.825Z,2.70
2022-11-15T16:38:32.656Z,2.42
2022-11-15T16:41:01.018Z,2.57
2022-11-15T16:43:29.310Z,2.50
2022-11-15T16:45:59.042Z,2.35
2022-11-15T16:48:28.622Z,3.28
2022-11-15T16:50:58.297Z,3.00
2022-11-15T16:53:27.105Z,3.25
2022-11-15T16:55:56.719Z,4.30
2022-11-15T16:58:25.783Z,3.55
2022-11-15T17:00:54.575Z,3.30
2022-11-15T17:03:25.230Z,4.40
2022-11-15T17:05:53.706Z,3.90
2022-11-15T17:08:22.567Z,4.73
2022-11-15T17:10:51.007Z,4.18
2022-11-15T17:13:19.220Z,4.72
2022-11-15T17:15:47.390Z,6.00
2022-11-15T17:18:16.024Z,5.32
2022-11-15T17:20:45.586Z,5.50
2022-11-15T17:23:15.490Z,5.88
2022-11-15T17:25:43.959Z,6.20
2022-11-15T17:28:12.223Z,6.43
2022-11-15T17:30:43.336Z,5.05
2022-11-15T17:33:11.830Z,2.70
2022-11-15T17:35:40.328Z,3.80
2022-11-15T17:38:09.865Z,3.38
2022-11-15T17:40:38.334Z,4.97
2022-11-15T17:43:07.289Z,3.85
2022-11-15T17:45:35.476Z,3.65
2022-11-15T17:48:03.748Z,2.40
2022-11-15T17:50:32.068Z,2.55
2022-11-15T17:53:00.733Z,2.50
2022-11-15T17:55:30.271Z,3.50
2022-11-15T17:57:58.686Z,5.90
2022-11-15T18:00:26.842Z,2.58
2022-11-15T18:02:55.035Z,2.30
2022-11-15T18:05:23.267Z,2.27
2022-11-15T18:07:52.052Z,2.40
2022-11-15T18:10:20.270Z,2.40
2022-11-15T18:12:49.804Z,2.70
2022-11-15T18:15:19.336Z,2.63
2022-11-15T18:17:47.608Z,3.25
2022-11-15T18:20:16.172Z,2.85
2022-11-15T18:22:44.366Z,2.30
2022-11-15T18:25:15.860Z,2.80
2022-11-15T18:27:44.152Z,2.95
2022-11-15T18:30:14.562Z,2.70
2022-11-15T18:32:43.026Z,2.90
2022-11-15T18:35:11.521Z,2.60
2022-11-15T18:37:39.799Z,3.05
2022-11-15T18:40:09.434Z,3.00
2022-11-15T18:42:37.696Z,3.10
2022-11-15T18:45:06.706Z,3.40
2022-11-15T18:47:37.609Z,4.30
2022-11-15T18:50:07.379Z,2.88
2022-11-15T18:52:35.568Z,3.00
2022-11-15T18:55:03.915Z,2.80
2022-11-15T18:57:32.621Z,2.50
2022-11-15T19:00:00.866Z,2.60
2022-11-15T19:02:29.862Z,2.67
2022-11-15T19:04:59.399Z,3.05
2022-11-15T19:07:27.779Z,3.10
2022-11-15T19:09:56.165Z,2.75
2022-11-15T19:12:24.398Z,3.03
2022-11-15T19:14:52.900Z,2.70
2022-11-15T19:17:21.052Z,2.60
2022-11-15T19:19:49.250Z,2.50
2022-11-15T19:22:18.896Z,2.40
2022-11-15T19:24:47.031Z,2.20
2022-11-15T19:27:15.269Z,2.22
2022-11-15T19:29:43.477Z,1.90
2022-11-15T19:32:11.699Z,2.08
2022-11-15T19:34:41.660Z,2.30
2022-11-15T19:37:10.050Z,1.65
2022-11-15T19:39:41.278Z,1.90
2022-11-15T19:42:09.749Z,1.70
2022-11-15T19:44:37.953Z,1.80
2022-11-15T19:47:06.507Z,2.35
2022-11-15T19:49:34.734Z,2.08
2022-11-15T19:52:03.358Z,2.15
2022-11-15T19:54:31.541Z,1.92
2022-11-15T19:57:01.165Z,1.80
2022-11-15T19:59:29.428Z,2.27
2022-11-15T20:01:57.694Z,3.10
2022-11-15T20:04:25.925Z,2.50
2022-11-15T20:06:54.200Z,2.40
2022-11-15T20:09:22.417Z,4.10
2022-11-15T20:11:50.625Z,2.72
2022-11-15T20:14:20.224Z,2.10
2022-11-15T20:16:53.932Z,1.95
2022-11-15T20:19:22.686Z,1.98
2022-11-15T20:21:50.846Z,2.20
2022-11-15T20:24:19.112Z,2.30
2022-11-15T20:26:47.298Z,2.22
2022-11-15T20:29:15.582Z,2.10
2022-11-15T20:31:45.330Z,1.95
2022-11-15T20:34:13.547Z,1.90
2022-11-15T20:36:41.837Z,2.60
2022-11-15T20:39:09.960Z,2.00
2022-11-15T20:41:38.229Z,2.50
2022-11-15T20:44:06.780Z,2.10
2022-11-15T20:46:35.008Z,2.13
2022-11-15T20:49:04.569Z,2.40
2022-11-15T20:51:32.934Z,5.07
2022-11-15T20:54:01.462Z,2.10
2022-11-15T20:56:29.649Z,2.47
2022-11-15T20:58:57.863Z,2.13
2022-11-15T21:01:26.340Z,2.60
2022-11-15T21:03:55.826Z,2.60
2022-11-15T21:06:26.931Z,2.60
2022-11-15T21:09:13.661Z,2.42
2022-11-15T21:11:59.600Z,2.60
2022-11-15T21:14:27.808Z,2.38
2022-11-15T21:16:56.074Z,3.00
2022-11-15T21:19:30.128Z,2.40
2022-11-15T21:22:04.460Z,2.55
2022-11-15T21:24:32.780Z,3.20
2022-11-15T21:27:01.469Z,2.53
2022-11-15T21:29:37.335Z,2.30
2022-11-15T21:32:07.376Z,2.60
2022-11-15T21:34:35.831Z,2.78
2022-11-15T21:37:05.949Z,2.10
2022-11-15T21:39:34.601Z,2.40
2022-11-15T21:42:02.845Z,2.40
2022-11-15T21:44:31.095Z,1.90
2022-11-15T21:46:59.372Z,2.50
2022-11-15T21:49:27.759Z,2.30
2022-11-15T21:51:56.058Z,2.45
2022-11-15T21:54:25.761Z,2.90
2022-11-15T21:56:54.008Z,2.92
2022-11-15T21:59:22.247Z,2.85
2022-11-15T22:02:07.721Z,2.50
2022-11-15T22:04:36.003Z,3.28
2022-11-15T22:07:04.202Z,3.40
2022-11-15T22:09:33.851Z,3.38
2022-11-15T22:12:02.214Z,3.30
2022-11-15T22:14:30.403Z,2.90
2022-11-15T22:16:58.715Z,3.10
2022-11-15T22:19:27.078Z,3.17
2022-11-15T22:21:55.345Z,2.85
2022-11-15T22:24:23.682Z,3.10
2022-11-15T22:26:54.030Z,3.00
2022-11-15T22:29:22.290Z,3.30
2022-11-15T22:31:50.626Z,3.25
2022-11-15T22:34:18.897Z,3.20
2022-11-15T22:37:18.258Z,2.70
2022-11-15T22:39:35.784Z,2.72
2022-11-15T22:42:05.724Z,2.80
2022-11-15T22:44:34.041Z,2.90
2022-11-15T22:47:04.211Z,3.45
2022-11-15T22:49:32.589Z,3.10
2022-11-15T22:52:01.033Z,3.10
2022-11-15T22:54:29.622Z,2.80
2022-11-15T22:56:58.203Z,2.90
2022-11-15T22:59:27.933Z,2.90
2022-11-15T23:01:56.202Z,2.75
2022-11-15T23:04:24.791Z,3.00
2022-11-15T23:06:53.084Z,3.20
2022-11-15T23:09:21.458Z,2.90
2022-11-15T23:12:07.122Z,2.40
2022-11-15T23:14:36.788Z,2.80
2022-11-15T23:17:07.083Z,2.20
2022-11-15T23:19:35.365Z,2.22
2022-11-15T23:22:20.805Z,2.30
2022-11-15T23:24:49.134Z,2.20
2022-11-15T23:27:20.068Z,2.45
2022-11-15T23:30:07.581Z,2.40
2022-11-15T23:32:53.340Z,2.35
2022-11-15T23:35:21.876Z,2.22
2022-11-15T23:37:50.538Z,2.00
2022-11-15T23:40:19.282Z,1.73
2022-11-15T23:42:47.634Z,2.10
2022-11-15T23:45:17.540Z,2.30
2022-11-15T23:47:46.261Z,2.10
2022-11-15T23:50:14.535Z,2.42
2022-11-15T23:52:42.823Z,2.30
2022-11-15T23:55:11.677Z,2.10
2022-11-15T23:57:40.537Z,1.90
